createdAt,value
2023-05-19T00:01:19.184Z,4.32
2023-05-19T00:03:57.805Z,3.80
2023-05-19T00:06:34.585Z,3.83
2023-05-19T00:09:05.852Z,3.95
2023-05-19T00:11:38.559Z,3.83
2023-05-19T00:14:09.817Z,4.25
2023-05-19T00:16:38.082Z,3.87
2023-05-19T00:19:10.149Z,5.03
2023-05-19T00:21:40.591Z,4.47
2023-05-19T00:24:07.894Z,4.30
2023-05-19T00:26:34.562Z,4.65
2023-05-19T00:29:06.057Z,4.47
2023-05-19T00:31:34.121Z,4.85
2023-05-19T00:34:03.336Z,4.75
2023-05-19T00:36:30.061Z,4.68
2023-05-19T00:38:59.165Z,4.53
2023-05-19T00:41:26.349Z,4.60
2023-05-19T00:43:53.004Z,4.55
2023-05-19T00:46:23.091Z,4.82
2023-05-19T00:48:49.809Z,5.18
2023-05-19T00:51:17.260Z,4.50
2023-05-19T00:53:49.059Z,5.07
2023-05-19T00:56:21.946Z,4.90
2023-05-19T00:58:51.234Z,5.13
2023-05-19T01:01:21.684Z,4.63
2023-05-19T01:03:48.994Z,4.60
2023-05-19T01:06:15.740Z,4.20
2023-05-19T01:08:42.411Z,4.18
2023-05-19T01:11:09.195Z,4.88
2023-05-19T01:13:41.821Z,4.20
2023-05-19T01:16:33.120Z,4.38
2023-05-19T01:19:27.976Z,4.40
2023-05-19T01:22:27.086Z,4.38
2023-05-19T01:25:02.720Z,4.53
2023-05-19T01:27:32.062Z,4.32
2023-05-19T01:30:40.445Z,4.63
2023-05-19T01:33:09.853Z,4.50
2023-05-19T01:35:40.697Z,4.53
2023-05-19T01:38:12.978Z,4.70
2023-05-19T01:40:40.832Z,4.20
2023-05-19T01:43:10.357Z,4.80
2023-05-19T01:45:42.254Z,4.90
2023-05-19T01:48:11.107Z,4.97
2023-05-19T01:50:38.181Z,4.90
2023-05-19T01:53:05.060Z,5.10
2023-05-19T01:55:31.852Z,4.80
2023-05-19T01:58:38.537Z,4.53
2023-05-19T02:01:31.142Z,4.90
2023-05-19T02:04:40.896Z,5.15
2023-05-19T02:07:17.885Z,4.63
2023-05-19T02:09:59.376Z,5.00
2023-05-19T02:12:28.435Z,5.00
2023-05-19T02:14:59.562Z,4.78
2023-05-19T02:17:29.171Z,5.05
2023-05-19T02:19:56.953Z,5.40
2023-05-19T02:22:23.573Z,4.90
2023-05-19T02:24:51.926Z,5.03
2023-05-19T02:27:18.932Z,5.65
2023-05-19T02:29:45.562Z,5.25
2023-05-19T02:32:12.271Z,5.03
2023-05-19T02:34:38.964Z,4.95
2023-05-19T02:37:05.633Z,4.23
2023-05-19T02:39:35.228Z,4.15
2023-05-19T02:42:04.172Z,4.85
2023-05-19T02:44:31.020Z,5.07
2023-05-19T02:46:59.839Z,4.82
2023-05-19T02:49:26.653Z,4.50
2023-05-19T02:51:53.385Z,4.65
2023-05-19T02:54:19.999Z,4.65
2023-05-19T02:56:48.847Z,4.43
2023-05-19T02:59:15.831Z,4.45
2023-05-19T03:01:42.545Z,4.17
2023-05-19T03:04:09.343Z,4.80
2023-05-19T03:06:36.421Z,4.70
2023-05-19T03:09:05.947Z,4.95
2023-05-19T03:11:32.650Z,4.63
2023-05-19T03:13:59.377Z,4.23
2023-05-19T03:16:26.735Z,4.32
2023-05-19T03:18:56.737Z,4.35
2023-05-19T03:21:23.474Z,4.18
2023-05-19T03:23:50.099Z,4.05
2023-05-19T03:26:18.987Z,4.47
2023-05-19T03:28:45.641Z,4.50
2023-05-19T03:31:16.435Z,4.18
2023-05-19T03:33:43.143Z,4.03
2023-05-19T03:36:10.070Z,3.85
2023-05-19T03:38:36.681Z,3.90
2023-05-19T03:41:03.512Z,4.10
2023-05-19T03:43:30.100Z,3.83
2023-05-19T03:45:57.013Z,4.00
2023-05-19T03:48:23.774Z,3.60
2023-05-19T03:50:50.419Z,3.50
2023-05-19T03:53:21.817Z,4.05
2023-05-19T03:55:49.776Z,3.80
2023-05-19T03:58:16.462Z,3.63
2023-05-19T04:00:43.168Z,3.83
2023-05-19T04:03:09.905Z,3.77
2023-05-19T04:05:36.634Z,3.63
2023-05-19T04:08:03.377Z,3.85
2023-05-19T04:10:30.184Z,3.83
2023-05-19T04:12:56.998Z,3.53
2023-05-19T04:15:23.634Z,3.53
2023-05-19T04:17:50.407Z,3.33
2023-05-19T04:20:17.091Z,3.60
2023-05-19T04:22:43.724Z,4.47
2023-05-19T04:25:13.282Z,3.85
2023-05-19T04:27:39.970Z,3.60
2023-05-19T04:30:09.963Z,3.40
2023-05-19T04:32:37.664Z,3.30
2023-05-19T04:35:04.812Z,3.80
2023-05-19T04:37:31.590Z,3.60
2023-05-19T04:40:00.417Z,3.53
2023-05-19T04:42:30.820Z,3.17
2023-05-19T04:44:57.441Z,3.30
2023-05-19T04:47:28.057Z,3.63
2023-05-19T04:49:55.730Z,3.63
2023-05-19T04:52:22.827Z,3.83
2023-05-19T04:54:51.844Z,3.33
2023-05-19T04:57:21.629Z,2.90
2023-05-19T04:59:48.301Z,3.08
2023-05-19T05:02:19.551Z,3.30
2023-05-19T05:04:46.628Z,4.10
2023-05-19T05:07:13.284Z,3.60
2023-05-19T05:09:40.008Z,3.75
2023-05-19T05:12:09.417Z,3.75
2023-05-19T05:14:36.272Z,3.67
2023-05-19T05:17:03.195Z,3.10
2023-05-19T05:19:30.256Z,3.70
2023-05-19T05:21:57.445Z,3.60
2023-05-19T05:24:24.275Z,3.40
2023-05-19T05:26:51.185Z,3.72
2023-05-19T05:29:17.842Z,3.87
2023-05-19T05:31:44.441Z,3.40
2023-05-19T05:34:13.566Z,3.40
2023-05-19T05:36:42.667Z,3.40
2023-05-19T05:39:09.265Z,3.35
2023-05-19T05:41:35.915Z,3.57
2023-05-19T05:44:03.016Z,3.95
2023-05-19T05:46:32.653Z,3.78
2023-05-19T05:48:59.592Z,2.80
2023-05-19T05:51:29.425Z,3.00
2023-05-19T05:53:57.593Z,3.03
2023-05-19T05:56:24.488Z,2.60
2023-05-19T05:58:51.113Z,3.10
2023-05-19T06:01:18.035Z,3.38
2023-05-19T06:03:45.112Z,2.90
2023-05-19T06:06:16.706Z,2.90
2023-05-19T06:08:43.372Z,2.90
2023-05-19T06:11:10.375Z,2.85
2023-05-19T06:13:37.123Z,3.25
2023-05-19T06:16:06.254Z,2.30
2023-05-19T06:18:35.214Z,2.70
2023-05-19T06:21:04.484Z,2.83
2023-05-19T06:23:31.335Z,3.20
2023-05-19T06:25:58.068Z,3.30
2023-05-19T06:28:26.902Z,2.90
2023-05-19T06:30:53.534Z,2.40
2023-05-19T06:33:27.433Z,2.58
2023-05-19T06:35:55.557Z,2.35
2023-05-19T06:38:22.161Z,2.45
2023-05-19T06:40:50.976Z,2.78
2023-05-19T06:43:17.919Z,2.60
2023-05-19T06:45:44.515Z,2.70
2023-05-19T06:48:15.817Z,2.65
2023-05-19T06:50:44.788Z,2.80
2023-05-19T06:53:11.502Z,3.10
2023-05-19T06:55:47.221Z,3.03
2023-05-19T06:58:24.423Z,2.53
2023-05-19T07:00:51.206Z,2.35
2023-05-19T07:03:18.016Z,2.33
2023-05-19T07:05:44.861Z,2.65
2023-05-19T07:08:11.482Z,2.30
2023-05-19T07:10:40.364Z,2.15
2023-05-19T07:13:07.052Z,4.90
2023-05-19T07:15:33.904Z,4.53
2023-05-19T07:18:00.665Z,4.35
2023-05-19T07:20:27.325Z,3.73
2023-05-19T07:22:53.979Z,5.38
2023-05-19T07:25:20.758Z,3.83
2023-05-19T07:27:47.536Z,4.20
2023-05-19T07:30:14.180Z,4.20
2023-05-19T07:32:40.840Z,4.00
2023-05-19T07:35:10.282Z,4.13
2023-05-19T07:37:39.641Z,4.38
2023-05-19T07:40:08.052Z,4.90
2023-05-19T07:42:34.864Z,5.40
2023-05-19T07:45:03.229Z,5.00
2023-05-19T07:47:30.722Z,4.93
2023-05-19T07:49:57.364Z,4.97
2023-05-19T07:52:23.991Z,5.07
2023-05-19T07:54:50.641Z,4.70
2023-05-19T07:57:19.615Z,3.97
2023-05-19T07:59:49.320Z,4.65
2023-05-19T08:02:16.150Z,5.85
2023-05-19T08:04:45.221Z,7.63
2023-05-19T08:07:11.883Z,10.18
2023-05-19T08:09:38.535Z,9.10
2023-05-19T08:12:05.458Z,8.63
2023-05-19T08:14:33.461Z,7.60
2023-05-19T08:17:00.108Z,6.53
2023-05-19T08:19:29.146Z,5.72
2023-05-19T08:22:01.174Z,6.60
2023-05-19T08:24:32.820Z,4.95
2023-05-19T08:27:00.010Z,5.25
2023-05-19T08:29:26.704Z,5.25
2023-05-19T08:31:53.540Z,5.28
2023-05-19T08:34:20.930Z,4.93
2023-05-19T08:36:47.721Z,4.93
2023-05-19T08:39:16.317Z,4.88
2023-05-19T08:41:43.030Z,4.63
2023-05-19T08:44:10.086Z,4.90
2023-05-19T08:46:37.060Z,4.67
2023-05-19T08:49:10.032Z,4.22
2023-05-19T08:51:56.098Z,4.50
2023-05-19T08:54:25.657Z,4.60
2023-05-19T08:56:52.437Z,4.57
2023-05-19T08:59:19.730Z,4.03
2023-05-19T09:01:47.181Z,4.28
2023-05-19T09:04:17.155Z,4.18
2023-05-19T09:06:46.441Z,4.75
2023-05-19T09:09:13.117Z,4.85
2023-05-19T09:11:39.768Z,4.03
2023-05-19T09:14:08.656Z,5.35
2023-05-19T09:16:35.783Z,4.78
2023-05-19T09:19:02.559Z,4.88
2023-05-19T09:21:32.713Z,4.82
2023-05-19T09:24:06.297Z,4.40
2023-05-19T09:26:40.469Z,4.95
2023-05-19T09:29:17.259Z,4.50
2023-05-19T09:31:54.105Z,4.38
2023-05-19T09:34:22.375Z,4.70
2023-05-19T09:36:53.630Z,4.77
2023-05-19T09:39:22.121Z,5.32
2023-05-19T09:41:53.658Z,5.13
2023-05-19T09:44:24.814Z,5.35
2023-05-19T09:46:55.291Z,4.90
2023-05-19T09:49:33.028Z,4.50
2023-05-19T09:52:03.705Z,4.70
2023-05-19T09:54:32.519Z,4.53
2023-05-19T09:57:03.733Z,4.47
2023-05-19T09:59:33.870Z,5.10
2023-05-19T10:02:03.762Z,4.30
2023-05-19T10:04:33.639Z,4.70
2023-05-19T10:07:05.701Z,4.78
2023-05-19T10:09:33.976Z,5.00
2023-05-19T10:12:01.065Z,4.85
2023-05-19T10:14:31.390Z,4.27
2023-05-19T10:16:59.255Z,4.97
2023-05-19T10:19:29.468Z,4.75
2023-05-19T10:21:56.723Z,3.97
2023-05-19T10:24:24.105Z,5.38
2023-05-19T10:26:59.869Z,5.27
2023-05-19T10:29:32.365Z,4.90
2023-05-19T10:32:04.611Z,4.95
2023-05-19T10:34:50.566Z,4.97
2023-05-19T10:37:43.951Z,4.80
2023-05-19T10:40:21.153Z,4.60
2023-05-19T10:42:57.956Z,5.13
2023-05-19T10:45:30.240Z,5.25
2023-05-19T10:47:57.035Z,4.57
2023-05-19T10:50:23.780Z,5.03
2023-05-19T10:52:56.024Z,4.50
2023-05-19T10:56:04.974Z,5.30
2023-05-19T10:58:43.814Z,5.47
2023-05-19T11:01:14.351Z,5.85
2023-05-19T11:03:57.349Z,6.68
2023-05-19T11:06:32.144Z,4.93
2023-05-19T11:09:01.018Z,5.85
2023-05-19T11:11:47.080Z,5.43
2023-05-19T11:14:17.123Z,5.97
2023-05-19T11:16:47.044Z,10.27
2023-05-19T11:19:32.591Z,6.70
2023-05-19T11:22:10.214Z,6.82
2023-05-19T11:24:38.051Z,7.20
2023-05-19T11:27:21.692Z,7.35
2023-05-19T11:29:48.897Z,7.40
2023-05-19T11:32:16.374Z,7.13
2023-05-19T11:34:44.422Z,8.02
2023-05-19T11:37:11.618Z,7.03
2023-05-19T11:39:39.668Z,7.35
2023-05-19T11:42:06.856Z,6.72
2023-05-19T11:44:33.443Z,6.97
2023-05-19T11:47:02.807Z,6.78
2023-05-19T11:49:29.650Z,6.53
2023-05-19T11:51:56.722Z,6.05
2023-05-19T11:54:30.419Z,5.38
2023-05-19T11:56:57.678Z,5.63
2023-05-19T11:59:33.466Z,5.70
2023-05-19T12:02:25.555Z,6.03
2023-05-19T12:04:52.444Z,5.65
2023-05-19T12:07:22.943Z,6.32
2023-05-19T12:09:51.134Z,5.63
2023-05-19T12:12:24.156Z,6.72
2023-05-19T12:14:51.876Z,5.72
2023-05-19T12:17:24.034Z,5.90
2023-05-19T12:19:51.384Z,5.28
2023-05-19T12:22:18.302Z,5.50
2023-05-19T12:24:46.215Z,6.28
2023-05-19T12:27:21.139Z,6.10
2023-05-19T12:29:54.788Z,6.68
2023-05-19T12:32:25.960Z,7.10
2023-05-19T12:34:55.931Z,7.13
2023-05-19T12:37:22.932Z,6.70
2023-05-19T12:39:50.776Z,6.75
2023-05-19T12:42:17.586Z,5.82
2023-05-19T12:44:46.896Z,6.50
2023-05-19T12:47:19.810Z,6.77
2023-05-19T12:49:56.135Z,6.07
2023-05-19T12:52:26.465Z,7.20
2023-05-19T12:55:07.487Z,6.15
2023-05-19T12:57:35.722Z,6.38
2023-05-19T13:00:22.970Z,6.83
2023-05-19T13:02:59.377Z,5.85
2023-05-19T13:05:28.186Z,6.50
2023-05-19T13:07:58.477Z,6.28
2023-05-19T13:10:27.274Z,6.03
2023-05-19T13:12:55.676Z,6.47
2023-05-19T13:15:24.610Z,5.82
2023-05-19T13:17:53.785Z,6.25
2023-05-19T13:20:21.775Z,6.03
2023-05-19T13:22:49.160Z,6.20
2023-05-19T13:25:16.426Z,5.27
2023-05-19T13:27:45.871Z,5.22
2023-05-19T13:30:12.976Z,4.40
2023-05-19T13:32:39.825Z,4.30
2023-05-19T13:35:07.088Z,4.75
2023-05-19T13:37:33.927Z,4.77
2023-05-19T13:40:00.657Z,4.45
2023-05-19T13:42:27.311Z,4.10
2023-05-19T13:44:59.279Z,4.43
2023-05-19T13:47:26.128Z,4.50
2023-05-19T13:49:53.262Z,4.23
2023-05-19T13:52:23.305Z,4.68
2023-05-19T13:54:50.098Z,4.25
2023-05-19T13:57:20.198Z,4.28
2023-05-19T14:00:00.956Z,4.07
2023-05-19T14:02:31.509Z,4.60
2023-05-19T14:04:58.452Z,4.10
2023-05-19T14:07:25.841Z,3.63
2023-05-19T14:09:52.908Z,3.88
2023-05-19T14:12:27.517Z,4.50
2023-05-19T14:14:58.702Z,3.80
2023-05-19T14:17:27.562Z,4.60
2023-05-19T14:19:54.291Z,4.60
2023-05-19T14:22:20.866Z,4.63
2023-05-19T14:24:47.509Z,5.47
2023-05-19T14:27:14.085Z,5.73
2023-05-19T14:29:41.884Z,5.22
2023-05-19T14:32:08.522Z,5.50
2023-05-19T14:34:35.474Z,5.70
2023-05-19T14:37:02.889Z,6.55
2023-05-19T14:39:30.454Z,5.17
2023-05-19T14:41:59.575Z,5.68
2023-05-19T14:44:30.966Z,6.00
2023-05-19T14:46:57.636Z,5.18
2023-05-19T14:49:26.575Z,5.15
2023-05-19T14:51:53.165Z,5.37
2023-05-19T14:54:19.802Z,5.50
2023-05-19T14:56:46.381Z,5.00
2023-05-19T14:59:13.002Z,4.35
2023-05-19T15:01:39.891Z,4.97
2023-05-19T15:04:06.664Z,4.60
2023-05-19T15:06:33.446Z,5.93
2023-05-19T15:09:00.182Z,5.32
2023-05-19T15:11:26.825Z,5.90
2023-05-19T15:13:53.493Z,5.75
2023-05-19T15:16:20.156Z,4.63
2023-05-19T15:18:46.895Z,4.72
2023-05-19T15:21:13.577Z,4.72
2023-05-19T15:23:40.265Z,4.55
2023-05-19T15:26:07.019Z,5.07
2023-05-19T15:28:34.259Z,4.53
2023-05-19T15:31:01.113Z,4.28
2023-05-19T15:33:27.816Z,4.65
2023-05-19T15:35:54.511Z,4.43
2023-05-19T15:38:21.269Z,4.80
2023-05-19T15:40:50.393Z,4.53
2023-05-19T15:43:17.584Z,4.43
2023-05-19T15:45:44.162Z,4.50
2023-05-19T15:48:11.541Z,5.03
2023-05-19T15:50:38.526Z,4.60
2023-05-19T15:53:07.754Z,5.07
2023-05-19T15:55:34.366Z,4.30
2023-05-19T15:58:01.146Z,5.20
2023-05-19T16:00:27.718Z,5.72
2023-05-19T16:02:54.366Z,5.25
2023-05-19T16:05:21.131Z,5.70
2023-05-19T16:07:47.766Z,5.22
2023-05-19T16:10:14.453Z,6.22
2023-05-19T16:12:41.185Z,6.20
2023-05-19T16:15:08.277Z,6.28
2023-05-19T16:17:35.421Z,5.70
2023-05-19T16:20:02.100Z,5.90
2023-05-19T16:22:30.252Z,5.63
2023-05-19T16:24:56.981Z,6.35
2023-05-19T16:27:28.370Z,6.13
2023-05-19T16:29:58.637Z,5.80
2023-05-19T16:32:27.527Z,6.50
2023-05-19T16:34:54.184Z,6.22
2023-05-19T16:37:20.821Z,5.75
2023-05-19T16:39:48.518Z,5.80
2023-05-19T16:42:15.135Z,6.17
2023-05-19T16:44:42.645Z,6.00
2023-05-19T16:47:09.295Z,6.60
2023-05-19T16:49:35.948Z,17.95
2023-05-19T16:52:02.607Z,9.60
2023-05-19T16:54:29.236Z,7.93
2023-05-19T16:56:55.980Z,8.70
2023-05-19T16:59:22.577Z,8.73
2023-05-19T17:01:51.903Z,7.82
2023-05-19T17:04:20.837Z,12.05
2023-05-19T17:06:47.699Z,7.83
2023-05-19T17:09:14.488Z,9.13
2023-05-19T17:11:41.603Z,7.10
2023-05-19T17:14:09.252Z,13.07
2023-05-19T17:16:36.693Z,12.15
2023-05-19T17:19:04.233Z,7.90
2023-05-19T17:21:31.786Z,7.82
2023-05-19T17:23:58.442Z,7.72
2023-05-19T17:26:25.092Z,6.05
2023-05-19T17:28:51.748Z,8.25
2023-05-19T17:31:18.419Z,9.23
2023-05-19T17:33:45.122Z,8.02
2023-05-19T17:36:14.480Z,8.43
2023-05-19T17:38:44.106Z,7.95
2023-05-19T17:41:10.946Z,8.10
2023-05-19T17:43:38.064Z,7.93
2023-05-19T17:46:07.667Z,9.98
2023-05-19T17:48:34.610Z,8.88
2023-05-19T17:51:01.510Z,9.30
2023-05-19T17:53:29.425Z,17.95
2023-05-19T17:56:00.917Z,13.10
2023-05-19T17:58:28.468Z,7.63
2023-05-19T18:01:00.073Z,7.63
2023-05-19T18:03:27.109Z,7.20
2023-05-19T18:05:56.819Z,7.93
2023-05-19T18:08:23.805Z,7.50
2023-05-19T18:10:51.773Z,6.80
2023-05-19T18:13:18.567Z,6.32
2023-05-19T18:15:47.429Z,6.60
2023-05-19T18:18:14.175Z,7.10
2023-05-19T18:20:44.325Z,6.60
2023-05-19T18:23:13.576Z,6.80
2023-05-19T18:25:48.354Z,6.43
2023-05-19T18:28:15.074Z,6.25
2023-05-19T18:30:42.026Z,6.07
2023-05-19T18:33:08.863Z,6.13
2023-05-19T18:35:36.666Z,6.50
2023-05-19T18:38:05.766Z,5.32
2023-05-19T18:40:32.669Z,5.15
2023-05-19T18:42:59.683Z,5.47
2023-05-19T18:45:28.614Z,5.60
2023-05-19T18:47:55.287Z,5.45
2023-05-19T18:50:21.905Z,5.35
2023-05-19T18:52:48.635Z,4.82
2023-05-19T18:55:15.462Z,4.82
2023-05-19T18:57:42.055Z,5.07
2023-05-19T19:00:09.173Z,6.18
2023-05-19T19:02:35.994Z,5.85
2023-05-19T19:05:04.126Z,5.30
2023-05-19T19:07:31.530Z,4.43
2023-05-19T19:10:00.798Z,5.57
2023-05-19T19:12:27.410Z,5.68
2023-05-19T19:14:54.577Z,5.40
2023-05-19T19:17:23.674Z,5.00
2023-05-19T19:19:50.442Z,5.60
2023-05-19T19:22:17.114Z,5.03
2023-05-19T19:24:46.058Z,5.82
2023-05-19T19:27:17.637Z,6.30
2023-05-19T19:29:46.958Z,5.88
2023-05-19T19:32:13.626Z,5.70
2023-05-19T19:34:40.221Z,5.73
2023-05-19T19:37:06.826Z,5.63
2023-05-19T19:39:33.470Z,6.50
2023-05-19T19:42:02.494Z,5.70
2023-05-19T19:44:29.141Z,5.88
2023-05-19T19:46:55.893Z,6.17
2023-05-19T19:49:22.540Z,5.68
2023-05-19T19:51:49.187Z,6.05
2023-05-19T19:54:15.850Z,5.80
2023-05-19T19:56:42.568Z,5.97
2023-05-19T19:59:09.158Z,5.60
2023-05-19T20:01:35.768Z,5.65
2023-05-19T20:04:04.940Z,6.22
2023-05-19T20:06:32.302Z,5.05
2023-05-19T20:08:59.433Z,5.70
2023-05-19T20:11:26.882Z,5.37
2023-05-19T20:13:53.627Z,5.25
2023-05-19T20:16:20.368Z,5.30
2023-05-19T20:18:47.111Z,5.35
2023-05-19T20:21:16.114Z,5.35
2023-05-19T20:23:42.736Z,5.07
2023-05-19T20:26:13.010Z,5.13
2023-05-19T20:28:40.366Z,5.55
2023-05-19T20:31:07.549Z,5.10
2023-05-19T20:33:34.580Z,5.45
2023-05-19T20:36:03.452Z,5.57
2023-05-19T20:38:30.146Z,5.38
2023-05-19T20:41:02.061Z,5.35
2023-05-19T20:43:28.766Z,5.70
2023-05-19T20:45:55.531Z,5.60
2023-05-19T20:48:22.222Z,5.33
2023-05-19T20:50:51.271Z,5.30
2023-05-19T20:53:19.498Z,5.50
2023-05-19T20:55:48.612Z,5.20
2023-05-19T20:58:15.522Z,5.47
2023-05-19T21:00:42.191Z,5.57
2023-05-19T21:03:08.996Z,5.30
2023-05-19T21:05:36.061Z,5.68
2023-05-19T21:08:03.051Z,5.30
2023-05-19T21:10:32.097Z,6.03
2023-05-19T21:12:59.035Z,5.70
2023-05-19T21:15:27.046Z,5.25
2023-05-19T21:17:56.277Z,5.47
2023-05-19T21:20:26.029Z,5.38
2023-05-19T21:22:52.620Z,5.70
2023-05-19T21:25:19.252Z,5.90
2023-05-19T21:27:46.508Z,5.57
2023-05-19T21:30:16.382Z,5.45
2023-05-19T21:32:45.964Z,5.72
2023-05-19T21:35:12.637Z,5.40
2023-05-19T21:37:39.292Z,6.00
2023-05-19T21:40:08.017Z,7.00
2023-05-19T21:42:35.215Z,6.90
2023-05-19T21:45:02.325Z,7.47
2023-05-19T21:47:31.451Z,6.68
2023-05-19T21:49:58.126Z,6.83
2023-05-19T21:52:24.868Z,6.80
2023-05-19T21:54:56.605Z,9.30
2023-05-19T21:57:23.282Z,7.63
2023-05-19T21:59:50.202Z,6.55
2023-05-19T22:02:17.166Z,6.80
2023-05-19T22:04:44.832Z,5.68
2023-05-19T22:07:11.478Z,6.38
2023-05-19T22:09:38.164Z,7.18
2023-05-19T22:12:05.136Z,7.63
2023-05-19T22:14:34.172Z,7.20
2023-05-19T22:17:00.836Z,6.82
2023-05-19T22:19:27.603Z,6.75
2023-05-19T22:22:01.883Z,6.53
2023-05-19T22:24:35.664Z,6.18
2023-05-19T22:27:02.240Z,6.03
2023-05-19T22:29:28.875Z,5.85
2023-05-19T22:31:55.498Z,5.97
2023-05-19T22:34:22.203Z,6.20
2023-05-19T22:36:48.822Z,5.82
2023-05-19T22:39:15.674Z,5.60
2023-05-19T22:41:42.349Z,5.90
2023-05-19T22:44:10.450Z,5.85
2023-05-19T22:46:37.285Z,6.22
2023-05-19T22:49:03.946Z,5.65
2023-05-19T22:51:31.342Z,5.63
2023-05-19T22:53:57.944Z,5.32
2023-05-19T22:56:24.573Z,5.43
2023-05-19T22:58:51.467Z,5.28
2023-05-19T23:01:18.831Z,5.10
2023-05-19T23:03:45.518Z,5.03
2023-05-19T23:06:12.196Z,5.30
2023-05-19T23:08:39.176Z,5.65
2023-05-19T23:11:07.926Z,5.35
2023-05-19T23:13:36.618Z,5.05
2023-05-19T23:16:04.738Z,5.00
2023-05-19T23:18:31.458Z,4.82
2023-05-19T23:20:58.027Z,4.82
2023-05-19T23:23:24.655Z,4.30
2023-05-19T23:25:51.279Z,4.57
2023-05-19T23:28:17.987Z,4.60
2023-05-19T23:30:44.616Z,4.88
2023-05-19T23:33:11.315Z,4.43
2023-05-19T23:35:40.370Z,4.47
2023-05-19T23:38:06.958Z,4.32
2023-05-19T23:40:33.578Z,4.60
2023-05-19T23:43:00.187Z,3.90
2023-05-19T23:45:26.822Z,4.00
2023-05-19T23:47:53.480Z,4.05
2023-05-19T23:54:01.305Z,3.73
2023-05-19T23:56:27.930Z,3.92
2023-05-19T23:58:54.524Z,3.33
